Time;durP1;ratioP1;P1;durP2;ratioP2;P2;SDS_P1;SDS_P2;PMS_P1;PMS_P2;Temp;Humidity;BMP_temperature;BMP_pressure;BME280_temperature;BME280_humidity;BME280_pressure;Samples;Min_cycle;Max_cycle;Signal;HPM_P1;HPM_P2
2021/08/28 00:01:00;;;;;;;1.98;1.27;;;20.90;64.00;;;;;;5111897;28;20180;-63
2021/08/28 00:03:25;;;;;;;0.80;0.80;;;20.90;64.00;;;;;;5094820;28;20169;-63
2021/08/28 00:05:51;;;;;;;2.03;1.05;;;20.90;64.00;;;;;;5115713;28;20231;-62
2021/08/28 00:08:16;;;;;;;2.60;1.23;;;20.90;64.10;;;;;;5115857;28;20189;-63
2021/08/28 00:10:42;;;;;;;1.42;0.90;;;21.00;64.10;;;;;;5114509;28;20654;-62
2021/08/28 00:13:08;;;;;;;1.85;1.10;;;20.90;64.00;;;;;;5115646;28;20543;-62
2021/08/28 00:15:33;;;;;;;2.25;1.08;;;20.90;64.10;;;;;;5115107;28;20741;-63
2021/08/28 00:17:59;;;;;;;2.25;1.10;;;20.90;64.10;;;;;;5114783;28;20169;-62
2021/08/28 00:20:24;;;;;;;1.80;0.98;;;20.90;64.10;;;;;;5115140;28;20173;-62
2021/08/28 00:22:50;;;;;;;2.15;1.00;;;20.90;64.10;;;;;;5115533;28;20181;-62
2021/08/28 00:25:15;;;;;;;2.30;1.00;;;20.90;64.10;;;;;;5114489;28;20767;-62
2021/08/28 00:27:41;;;;;;;1.77;1.05;;;20.90;64.10;;;;;;5115115;28;20220;-62
2021/08/28 00:30:07;;;;;;;1.92;1.30;;;20.90;64.10;;;;;;5115309;28;20530;-62
2021/08/28 00:32:33;;;;;;;1.92;1.15;;;20.90;64.10;;;;;;5114449;28;20188;-63
2021/08/28 00:34:58;;;;;;;2.28;1.30;;;20.90;64.10;;;;;;5115390;28;20174;-63
2021/08/28 00:37:24;;;;;;;2.10;1.20;;;20.90;64.10;;;;;;5114988;28;20169;-63
2021/08/28 00:39:49;;;;;;;1.20;0.98;;;20.90;64.20;;;;;;5114496;28;20161;-62
2021/08/28 00:42:15;;;;;;;1.75;1.33;;;20.90;64.10;;;;;;5115112;28;20176;-62
2021/08/28 00:44:41;;;;;;;1.58;0.90;;;20.90;64.10;;;;;;5114730;28;20659;-63
2021/08/28 00:47:07;;;;;;;1.48;0.98;;;20.90;64.10;;;;;;5114584;28;20224;-63
2021/08/28 00:49:32;;;;;;;1.27;0.93;;;20.90;64.10;;;;;;5114928;28;20196;-63
2021/08/28 00:52:01;;;;;;;2.22;1.42;;;20.90;64.10;;;;;;5114965;28;20177;-62
2021/08/28 00:54:27;;;;;;;0.90;0.82;;;20.80;64.10;;;;;;5114005;28;20184;-62
2021/08/28 00:56:52;;;;;;;2.05;1.20;;;20.80;64.10;;;;;;5114732;28;20238;-62
2021/08/28 00:59:18;;;;;;;3.10;1.17;;;20.80;64.10;;;;;;5114756;28;20534;-63
2021/08/28 01:01:43;;;;;;;2.53;1.23;;;20.80;64.10;;;;;;5113808;28;20188;-62
2021/08/28 01:04:13;;;;;;;1.52;1.13;;;20.80;64.10;;;;;;5096741;28;20253;-63
2021/08/28 01:06:51;;;;;;;1.02;0.90;;;20.80;64.10;;;;;;5095999;28;20220;-63
2021/08/28 01:09:30;;;;;;;1.77;1.10;;;20.80;64.10;;;;;;5114635;28;20202;-63
2021/08/28 01:12:05;;;;;;;1.10;1.00;;;20.80;64.10;;;;;;5096992;28;20260;-63
2021/08/28 01:14:31;;;;;;;1.17;0.90;;;20.80;64.10;;;;;;5095160;28;20180;-63
2021/08/28 01:17:03;;;;;;;1.88;1.10;;;20.80;64.10;;;;;;5096243;28;20173;-62
2021/08/28 01:19:35;;;;;;;1.63;1.00;;;20.80;64.10;;;;;;5096276;28;20248;-62
2021/08/28 01:22:11;;;;;;;0.98;0.90;;;20.80;64.10;;;;;;5113515;28;20188;-61
2021/08/28 01:24:38;;;;;;;1.35;1.08;;;20.80;64.10;;;;;;5114079;28;20271;-62
2021/08/28 01:27:27;;;;;;;2.40;1.17;;;20.80;64.20;;;;;;5096219;28;20248;-62
2021/08/28 01:29:52;;;;;;;0.98;0.77;;;20.80;64.20;;;;;;5079728;28;20188;-62
2021/08/28 01:32:18;;;;;;;0.80;0.75;;;20.80;64.20;;;;;;5096102;28;20197;-63
2021/08/28 01:34:43;;;;;;;1.35;0.90;;;20.80;64.20;;;;;;5113844;28;20185;-63
2021/08/28 01:37:12;;;;;;;1.30;1.10;;;20.80;64.20;;;;;;5078213;28;20173;-63
2021/08/28 01:39:38;;;;;;;1.42;1.10;;;20.80;64.20;;;;;;5113647;28;20606;-62
2021/08/28 01:42:03;;;;;;;1.45;0.85;;;20.80;64.20;;;;;;5094950;28;20261;-62
2021/08/28 01:44:29;;;;;;;0.90;0.90;;;20.80;64.20;;;;;;5095470;28;20220;-63
2021/08/28 01:46:55;;;;;;;1.17;0.80;;;20.70;64.10;;;;;;5078863;28;20232;-62
2021/08/28 01:49:24;;;;;;;1.45;1.10;;;20.80;64.20;;;;;;5112943;28;20169;-63
2021/08/28 01:51:49;;;;;;;1.23;1.00;;;20.80;64.20;;;;;;5096422;28;20181;-61
2021/08/28 01:54:15;;;;;;;1.95;1.15;;;20.80;64.40;;;;;;5095755;28;20176;-62
2021/08/28 01:56:40;;;;;;;1.38;1.15;;;20.80;64.30;;;;;;5112816;28;20184;-63
2021/08/28 01:59:06;;;;;;;1.30;1.20;;;20.70;64.20;;;;;;5113777;28;20185;-62
2021/08/28 02:01:31;;;;;;;1.60;1.10;;;20.80;64.20;;;;;;5095051;28;20557;-63
2021/08/28 02:03:57;;;;;;;1.52;1.30;;;20.70;64.20;;;;;;5112905;28;20652;-63
2021/08/28 02:07:00;;;;;;;1.20;0.82;;;20.70;64.20;;;;;;5113314;28;20228;-63
2021/08/28 02:10:00;;;;;;;1.20;1.05;;;20.70;64.20;;;;;;5113109;28;20637;-63
2021/08/28 02:12:38;;;;;;;0.95;0.95;;;20.70;64.20;;;;;;5086976;28;20184;-63
2021/08/28 02:15:12;;;;;;;1.40;1.15;;;20.70;64.20;;;;;;5113414;28;20173;-62
2021/08/28 02:17:56;;;;;;;1.42;1.10;;;20.70;64.20;;;;;;5077019;28;20631;-62
2021/08/28 02:20:21;;;;;;;2.03;1.10;;;20.70;64.20;;;;;;5094945;28;20177;-62
2021/08/28 02:22:47;;;;;;;1.58;1.38;;;20.70;64.20;;;;;;5094875;28;20314;-62
2021/08/28 02:25:30;;;;;;;1.27;1.17;;;20.70;64.20;;;;;;5111702;28;20301;-62
2021/08/28 02:27:59;;;;;;;1.55;1.10;;;20.70;64.30;;;;;;5094993;28;20220;-62
2021/08/28 02:30:24;;;;;;;1.40;1.10;;;20.70;64.30;;;;;;5094639;28;20174;-63
2021/08/28 02:32:51;;;;;;;0.98;0.90;;;20.70;64.30;;;;;;5094033;28;20180;-62
2021/08/28 02:35:16;;;;;;;1.45;1.00;;;20.70;64.30;;;;;;5112901;28;20173;-62
2021/08/28 02:37:42;;;;;;;1.20;0.88;;;20.70;64.30;;;;;;5094228;28;20540;-63
2021/08/28 02:40:09;;;;;;;1.17;0.90;;;20.70;64.30;;;;;;5077292;28;20177;-62
2021/08/28 02:42:34;;;;;;;1.40;0.95;;;20.70;64.30;;;;;;5077489;28;20180;-62
2021/08/28 02:45:01;;;;;;;0.90;0.90;;;20.70;64.30;;;;;;5077496;28;20173;-63
2021/08/28 02:47:26;;;;;;;1.50;1.02;;;20.70;64.30;;;;;;5093275;28;20223;-63
2021/08/28 02:49:52;;;;;;;1.63;1.20;;;20.70;64.30;;;;;;5094633;28;20252;-62
2021/08/28 02:52:18;;;;;;;1.58;1.00;;;20.70;64.30;;;;;;5111940;28;20627;-63
2021/08/28 02:54:44;;;;;;;1.33;0.90;;;20.70;64.30;;;;;;5077394;28;20185;-62
2021/08/28 02:57:09;;;;;;;1.30;1.10;;;20.70;64.30;;;;;;5094466;28;20180;-62
2021/08/28 02:59:35;;;;;;;2.05;1.25;;;20.70;64.30;;;;;;5111574;28;20168;-62
2021/08/28 03:02:02;;;;;;;1.02;0.98;;;20.70;64.30;;;;;;5112464;28;20191;-63
2021/08/28 03:04:27;;;;;;;1.35;0.80;;;20.60;64.30;;;;;;5094158;28;20294;-62
2021/08/28 03:06:53;;;;;;;1.80;1.20;;;20.70;64.30;;;;;;5111659;28;20366;-63
2021/08/28 03:09:19;;;;;;;1.58;1.23;;;20.70;64.30;;;;;;5112427;28;20589;-63
2021/08/28 03:11:44;;;;;;;1.45;1.10;;;20.60;64.30;;;;;;5112136;28;20185;-62
2021/08/28 03:14:10;;;;;;;1.55;1.30;;;20.60;64.30;;;;;;5076762;28;20204;-62
2021/08/28 03:16:36;;;;;;;1.17;0.98;;;20.60;64.30;;;;;;5093783;28;20173;-62
2021/08/28 03:19:02;;;;;;;1.50;1.33;;;20.70;64.40;;;;;;5094521;28;20321;-62
2021/08/28 03:21:29;;;;;;;1.70;1.00;;;20.60;64.30;;;;;;5093428;28;20248;-62
2021/08/28 03:23:58;;;;;;;2.28;1.30;;;20.60;64.30;;;;;;5077614;28;20177;-63
2021/08/28 03:26:23;;;;;;;1.17;0.95;;;20.60;64.30;;;;;;5112233;28;20212;-61
2021/08/28 03:28:49;;;;;;;2.00;1.00;;;20.60;64.30;;;;;;5076674;28;20172;-62
2021/08/28 03:31:15;;;;;;;1.10;1.00;;;20.60;64.30;;;;;;5094218;28;20181;-62
2021/08/28 03:33:41;;;;;;;1.02;1.00;;;20.60;64.30;;;;;;5094127;28;20563;-62
2021/08/28 03:36:06;;;;;;;1.65;1.30;;;20.60;64.30;;;;;;5093508;28;20640;-63
2021/08/28 03:38:34;;;;;;;1.92;1.25;;;20.60;64.40;;;;;;5097864;28;20222;-63
2021/08/28 03:40:59;;;;;;;1.95;1.10;;;20.60;64.40;;;;;;5098295;28;20628;-62
2021/08/28 03:43:25;;;;;;;1.35;1.25;;;20.60;64.40;;;;;;5115419;28;20169;-62
2021/08/28 03:45:50;;;;;;;1.30;1.20;;;20.60;64.40;;;;;;5115994;28;20671;-62
2021/08/28 03:48:17;;;;;;;1.20;1.00;;;20.60;64.40;;;;;;5098277;28;20206;-62
2021/08/28 03:50:42;;;;;;;1.08;0.95;;;20.60;64.40;;;;;;5097027;28;20177;-62
2021/08/28 03:53:08;;;;;;;1.60;0.98;;;20.60;64.40;;;;;;5116131;28;20173;-62
2021/08/28 03:55:33;;;;;;;1.98;1.42;;;20.60;64.40;;;;;;5114865;28;20545;-62
2021/08/28 03:57:59;;;;;;;2.13;1.20;;;20.60;64.40;;;;;;5116029;28;20173;-62
2021/08/28 04:00:24;;;;;;;1.20;1.10;;;20.60;64.40;;;;;;5115578;28;20188;-62
2021/08/28 04:02:50;;;;;;;1.60;1.17;;;20.60;64.40;;;;;;5115266;28;20180;-62
2021/08/28 04:05:15;;;;;;;1.05;0.95;;;20.60;64.40;;;;;;5115993;28;20177;-63
2021/08/28 04:07:41;;;;;;;1.00;0.95;;;20.60;64.40;;;;;;5115583;28;20176;-62
2021/08/28 04:10:07;;;;;;;0.98;0.88;;;20.60;64.40;;;;;;5115178;28;20172;-62
2021/08/28 04:12:32;;;;;;;1.15;1.05;;;20.60;64.50;;;;;;5115286;28;20182;-62
2021/08/28 04:14:58;;;;;;;2.15;1.40;;;20.60;64.40;;;;;;5115591;28;20166;-62
2021/08/28 04:17:24;;;;;;;1.25;1.15;;;20.60;64.40;;;;;;5114750;28;20267;-62
2021/08/28 04:19:50;;;;;;;1.23;1.13;;;20.60;64.40;;;;;;5115642;28;20631;-61
2021/08/28 04:22:15;;;;;;;1.25;0.93;;;20.60;64.40;;;;;;5115784;28;20185;-62
2021/08/28 04:24:41;;;;;;;2.08;1.10;;;20.60;64.50;;;;;;5114550;28;20229;-62
2021/08/28 04:27:07;;;;;;;1.13;1.02;;;20.60;64.50;;;;;;5115600;28;20219;-62
2021/08/28 04:29:32;;;;;;;1.33;0.70;;;20.60;64.40;;;;;;5115198;28;20615;-62
2021/08/28 04:31:58;;;;;;;1.98;1.33;;;20.60;64.50;;;;;;5114848;28;20188;-62
2021/08/28 04:34:23;;;;;;;1.77;1.08;;;20.60;65.30;;;;;;5115264;28;20165;-63
2021/08/28 04:36:49;;;;;;;1.88;1.10;;;20.60;64.50;;;;;;5115418;28;20169;-63
2021/08/28 04:39:14;;;;;;;1.58;1.20;;;20.60;64.50;;;;;;5114848;28;20165;-62
2021/08/28 04:41:40;;;;;;;1.42;1.10;;;20.60;64.50;;;;;;5114842;28;20226;-62
2021/08/28 04:44:05;;;;;;;2.28;1.30;;;20.50;64.40;;;;;;5114983;28;20168;-63
2021/08/28 04:46:31;;;;;;;1.75;1.08;;;20.50;64.40;;;;;;5113763;28;20736;-63
2021/08/28 04:48:56;;;;;;;1.27;1.17;;;20.50;64.40;;;;;;5114512;28;20253;-62
2021/08/28 04:51:22;;;;;;;1.00;0.90;;;20.60;64.60;;;;;;5114836;28;20173;-62
2021/08/28 04:53:47;;;;;;;1.48;1.38;;;20.50;64.40;;;;;;5114132;28;20169;-62
2021/08/28 04:56:13;;;;;;;0.95;0.90;;;20.50;64.40;;;;;;5114818;28;20623;-63
2021/08/28 04:58:38;;;;;;;1.40;1.30;;;20.50;64.40;;;;;;5114436;28;20209;-62
2021/08/28 05:01:04;;;;;;;0.98;0.88;;;20.50;64.50;;;;;;5113906;28;20184;-63
2021/08/28 05:03:29;;;;;;;1.27;1.17;;;20.50;64.50;;;;;;5114555;28;20245;-63
2021/08/28 05:05:55;;;;;;;1.10;1.05;;;20.50;64.50;;;;;;5114066;28;20276;-64
2021/08/28 05:08:21;;;;;;;1.98;1.25;;;20.50;64.40;;;;;;5114489;28;20172;-63
2021/08/28 05:10:47;;;;;;;1.20;1.10;;;20.50;64.50;;;;;;5114669;28;20165;-63
2021/08/28 05:13:13;;;;;;;1.25;1.15;;;20.50;64.50;;;;;;5113855;28;20209;-62
2021/08/28 05:15:38;;;;;;;1.20;1.10;;;20.50;64.50;;;;;;5114109;28;20201;-62
2021/08/28 05:18:04;;;;;;;1.65;1.30;;;20.50;64.50;;;;;;5114683;28;20257;-62
2021/08/28 05:20:30;;;;;;;1.30;1.20;;;20.50;64.50;;;;;;5113471;28;20173;-62
2021/08/28 05:22:56;;;;;;;1.70;0.88;;;20.50;64.50;;;;;;5114590;28;20184;-62
2021/08/28 05:25:21;;;;;;;1.50;1.40;;;20.50;64.50;;;;;;5113798;28;20293;-62
2021/08/28 05:27:46;;;;;;;1.13;1.02;;;20.50;64.50;;;;;;5113570;28;20173;-62
2021/08/28 05:30:12;;;;;;;1.52;1.23;;;20.50;64.60;;;;;;5114144;28;20189;-63
2021/08/28 05:32:38;;;;;;;1.52;1.23;;;20.50;64.50;;;;;;5113998;28;20257;-63
2021/08/28 05:35:03;;;;;;;0.90;0.90;;;20.50;64.50;;;;;;5113568;28;20177;-63
2021/08/28 05:37:29;;;;;;;1.08;0.90;;;20.50;64.50;;;;;;5113806;28;20176;-63
2021/08/28 05:39:54;;;;;;;1.10;0.90;;;20.50;64.60;;;;;;5113954;28;20212;-62
2021/08/28 05:42:20;;;;;;;1.45;1.02;;;20.50;64.50;;;;;;5113010;28;20196;-63
2021/08/28 05:44:45;;;;;;;1.60;1.23;;;20.50;64.60;;;;;;5113766;28;20173;-62
2021/08/28 05:47:11;;;;;;;1.52;1.30;;;20.50;65.50;;;;;;5114007;28;20208;-63
2021/08/28 05:49:36;;;;;;;1.20;1.10;;;20.50;64.50;;;;;;5112881;28;20223;-63
2021/08/28 05:52:02;;;;;;;1.38;1.17;;;20.50;64.70;;;;;;5113801;28;20548;-62
2021/08/28 05:54:28;;;;;;;1.20;1.10;;;20.50;64.60;;;;;;5113612;28;20251;-63
2021/08/28 05:56:53;;;;;;;1.00;1.00;;;20.50;64.60;;;;;;5113082;28;20173;-63
2021/08/28 05:59:19;;;;;;;1.73;1.15;;;20.50;64.50;;;;;;5113580;28;20173;-62
2021/08/28 06:01:44;;;;;;;1.40;1.10;;;20.50;64.50;;;;;;5112728;28;20267;-62
2021/08/28 06:04:10;;;;;;;1.52;1.33;;;20.50;64.60;;;;;;5113151;28;20173;-63
2021/08/28 06:06:35;;;;;;;1.52;1.00;;;20.50;64.50;;;;;;5113377;28;20232;-62
2021/08/28 06:09:01;;;;;;;1.35;1.25;;;20.50;64.50;;;;;;5113592;28;20248;-62
2021/08/28 06:11:26;;;;;;;1.52;1.17;;;20.50;64.50;;;;;;5112343;28;20230;-63
2021/08/28 06:13:55;;;;;;;1.92;1.10;;;20.50;64.50;;;;;;5113354;28;20177;-63
2021/08/28 06:16:21;;;;;;;2.38;1.58;;;20.50;64.50;;;;;;5112210;28;20731;-63
2021/08/28 06:18:47;;;;;;;1.70;1.27;;;20.50;64.50;;;;;;5113424;28;20259;-62
2021/08/28 06:21:19;;;;;;;2.60;1.30;;;20.60;64.50;;;;;;5109886;27;20975;-63
2021/08/28 06:23:45;;;;;;;1.40;1.30;;;20.60;64.50;;;;;;5109181;28;20173;-63
2021/08/28 06:26:10;;;;;;;1.77;1.08;;;20.50;64.40;;;;;;5109774;28;20184;-63
2021/08/28 06:28:36;;;;;;;1.13;1.00;;;20.60;64.50;;;;;;5109379;28;20168;-63
2021/08/28 06:31:01;;;;;;;1.25;1.15;;;20.60;64.50;;;;;;5109211;28;20215;-63
2021/08/28 06:33:27;;;;;;;2.17;1.20;;;20.60;64.60;;;;;;5109313;28;20207;-63
2021/08/28 06:35:52;;;;;;;1.27;1.17;;;20.60;64.50;;;;;;5109783;28;20309;-63
2021/08/28 06:38:21;;;;;;;1.25;1.15;;;20.60;64.60;;;;;;5108871;28;20478;-63
2021/08/28 06:40:46;;;;;;;1.23;0.95;;;20.60;64.60;;;;;;5109593;28;20205;-62
2021/08/28 06:43:12;;;;;;;1.27;1.17;;;20.60;64.60;;;;;;5109867;28;20210;-62
2021/08/28 06:45:37;;;;;;;1.17;1.17;;;20.60;64.60;;;;;;5108740;28;20224;-62
2021/08/28 06:48:03;;;;;;;1.85;1.08;;;20.60;64.60;;;;;;5109446;28;20703;-63
2021/08/28 06:50:29;;;;;;;1.10;1.00;;;20.60;64.60;;;;;;5109326;28;20174;-63
2021/08/28 06:52:54;;;;;;;1.92;1.65;;;20.60;64.60;;;;;;5108920;28;20248;-63
2021/08/28 06:55:20;;;;;;;1.30;1.20;;;20.60;64.60;;;;;;5109176;28;20173;-63
2021/08/28 06:57:45;;;;;;;1.67;1.20;;;20.60;64.60;;;;;;5109141;28;20196;-62
2021/08/28 07:00:12;;;;;;;1.25;1.05;;;20.60;64.50;;;;;;5108689;28;20212;-62
2021/08/28 07:02:38;;;;;;;1.20;1.10;;;20.60;64.50;;;;;;5108866;28;20676;-63
2021/08/28 07:05:04;;;;;;;1.20;1.10;;;20.60;64.60;;;;;;5109222;28;20173;-62
2021/08/28 07:07:30;;;;;;;1.45;1.33;;;20.60;64.60;;;;;;5108153;28;20261;-63
2021/08/28 07:09:56;;;;;;;1.90;1.48;;;20.60;64.60;;;;;;5109058;28;20264;-63
2021/08/28 07:12:21;;;;;;;1.60;1.20;;;20.60;64.60;;;;;;5108581;28;20199;-63
2021/08/28 07:14:47;;;;;;;1.35;1.25;;;20.60;64.50;;;;;;5108331;28;20228;-62
2021/08/28 07:17:12;;;;;;;1.25;1.15;;;20.60;64.50;;;;;;5108674;28;20627;-61
2021/08/28 07:19:38;;;;;;;1.33;1.23;;;20.60;64.40;;;;;;5107502;28;20240;-61
2021/08/28 07:22:03;;;;;;;1.38;1.27;;;20.60;64.50;;;;;;5108825;28;20212;-62
2021/08/28 07:24:29;;;;;;;1.80;1.60;;;20.60;64.50;;;;;;5108495;28;20264;-62
2021/08/28 07:26:54;;;;;;;1.45;1.35;;;20.60;64.50;;;;;;5108168;28;20265;-61
2021/08/28 07:29:20;;;;;;;1.40;1.30;;;20.60;64.50;;;;;;5108223;28;20642;-62
2021/08/28 07:31:45;;;;;;;1.30;1.20;;;20.60;64.50;;;;;;5100325;28;20260;-62
2021/08/28 07:34:17;;;;;;;1.67;1.40;;;20.60;64.50;;;;;;5094229;28;20177;-62
2021/08/28 07:36:43;;;;;;;1.65;1.20;;;20.60;64.40;;;;;;5094410;28;20178;-62
2021/08/28 07:39:08;;;;;;;1.98;1.10;;;20.60;64.50;;;;;;5094705;28;20177;-63
2021/08/28 07:41:34;;;;;;;1.58;1.30;;;20.70;65.40;;;;;;5093562;28;20182;-61
2021/08/28 07:43:59;;;;;;;1.75;1.33;;;20.70;64.50;;;;;;5094623;28;20537;-62
2021/08/28 07:46:25;;;;;;;1.63;1.33;;;20.70;65.30;;;;;;5094386;28;20230;-62
2021/08/28 07:48:50;;;;;;;0.95;0.90;;;20.70;64.50;;;;;;5093690;28;20721;-62
2021/08/28 07:51:16;;;;;;;1.40;1.30;;;20.70;64.40;;;;;;5094668;28;20174;-62
2021/08/28 07:53:41;;;;;;;1.35;1.25;;;20.70;64.40;;;;;;5094152;28;20216;-61
2021/08/28 07:56:07;;;;;;;1.30;1.20;;;20.80;64.30;;;;;;5093920;28;20170;-61
2021/08/28 07:58:32;;;;;;;1.23;1.13;;;20.80;64.30;;;;;;5094219;28;20217;-61
2021/08/28 08:01:00;;;;;;;1.63;1.40;;;20.80;64.20;;;;;;5094288;28;20213;-61
2021/08/28 08:03:26;;;;;;;1.20;1.10;;;20.80;64.20;;;;;;5093456;28;20178;-62
2021/08/28 08:05:52;;;;;;;1.40;1.30;;;20.80;64.20;;;;;;5094270;28;20227;-61
2021/08/28 08:08:17;;;;;;;1.30;1.20;;;20.80;64.20;;;;;;5094144;28;20258;-62
2021/08/28 08:10:43;;;;;;;1.50;1.40;;;20.80;64.40;;;;;;5093527;28;20281;-63
2021/08/28 08:13:08;;;;;;;1.92;1.30;;;20.80;64.40;;;;;;5094226;28;20174;-63
2021/08/28 08:15:34;;;;;;;1.60;1.40;;;20.80;64.40;;;;;;5093703;28;20218;-64
2021/08/28 08:17:59;;;;;;;1.45;1.35;;;20.80;64.30;;;;;;5093619;28;20247;-61
2021/08/28 08:20:25;;;;;;;2.92;1.88;;;20.80;64.40;;;;;;5093181;28;20294;-60
2021/08/28 08:22:51;;;;;;;2.42;1.60;;;20.80;64.50;;;;;;5092896;28;20173;-60
2021/08/28 08:25:17;;;;;;;2.67;1.63;;;20.80;64.60;;;;;;5093843;28;20178;-60
2021/08/28 08:27:42;;;;;;;1.90;1.70;;;20.90;64.80;;;;;;5093398;28;20204;-60
2021/08/28 08:30:08;;;;;;;5.97;2.17;;;20.90;64.70;;;;;;5092916;28;20663;-60
2021/08/28 08:32:34;;;;;;;4.10;1.63;;;20.90;64.70;;;;;;5093220;28;20174;-60
2021/08/28 08:34:59;;;;;;;3.35;1.83;;;20.90;64.40;;;;;;5093284;28;20178;-61
2021/08/28 08:37:25;;;;;;;3.95;1.75;;;20.90;64.80;;;;;;5091290;28;20201;-60
2021/08/28 08:39:50;;;;;;;2.90;1.95;;;20.90;64.80;;;;;;5092575;28;20609;-60
2021/08/28 08:42:17;;;;;;;2.83;1.60;;;21.00;64.70;;;;;;5093117;28;20192;-61
2021/08/28 08:44:44;;;;;;;2.05;1.45;;;21.00;64.70;;;;;;5090736;28;20591;-61
2021/08/28 08:47:10;;;;;;;3.42;1.90;;;21.10;64.60;;;;;;5092149;28;20177;-60
2021/08/28 08:49:36;;;;;;;2.65;1.77;;;21.10;64.50;;;;;;5091671;28;20180;-60
2021/08/28 08:52:01;;;;;;;3.88;2.00;;;21.10;64.40;;;;;;5092456;28;20181;-60
2021/08/28 08:54:27;;;;;;;1.92;1.73;;;21.20;64.50;;;;;;5091491;28;20181;-60
2021/08/28 08:56:53;;;;;;;2.53;1.75;;;21.20;64.50;;;;;;5092145;28;20224;-61
2021/08/28 08:59:19;;;;;;;4.43;1.83;;;21.20;64.40;;;;;;5092226;28;20194;-60
2021/08/28 09:01:44;;;;;;;2.97;1.80;;;21.20;64.40;;;;;;5092539;28;20234;-60
2021/08/28 09:04:11;;;;;;;3.97;1.85;;;21.20;64.60;;;;;;5093013;28;20599;-61
2021/08/28 09:06:38;;;;;;;4.97;2.08;;;21.20;64.70;;;;;;5091917;28;20178;-61
2021/08/28 09:09:03;;;;;;;3.38;1.70;;;21.20;64.80;;;;;;5093223;28;20181;-59
2021/08/28 09:11:33;;;;;;;2.33;1.70;;;21.20;64.90;;;;;;5092798;28;20169;-58
2021/08/28 09:14:15;;;;;;;4.40;1.90;;;21.20;64.90;;;;;;5092116;28;20257;-60
2021/08/28 09:16:40;;;;;;;5.38;1.63;;;21.20;64.90;;;;;;5091890;28;20172;-59
2021/08/28 09:19:06;;;;;;;6.07;2.17;;;21.20;65.10;;;;;;5090136;28;20166;-58
2021/08/28 09:21:32;;;;;;;4.82;2.03;;;21.20;65.10;;;;;;5091884;28;20249;-58
2021/08/28 09:24:05;;;;;;;3.38;2.00;;;21.20;65.20;;;;;;5092635;28;20257;-59
2021/08/28 09:26:35;;;;;;;4.20;1.90;;;21.20;65.30;;;;;;5090934;28;20652;-59
2021/08/28 09:29:01;;;;;;;3.85;2.13;;;21.20;65.20;;;;;;5089848;28;20174;-59
2021/08/28 09:31:43;;;;;;;3.40;2.00;;;21.20;65.30;;;;;;5091655;28;20182;-59
2021/08/28 09:34:24;;;;;;;3.05;1.80;;;21.20;65.30;;;;;;5089468;28;20173;-59
2021/08/28 09:36:54;;;;;;;3.50;2.33;;;21.30;65.30;;;;;;5089108;28;20633;-59
2021/08/28 09:39:20;;;;;;;6.53;2.33;;;21.30;65.30;;;;;;5088682;28;20198;-59
2021/08/28 09:41:52;;;;;;;3.45;2.10;;;21.30;65.20;;;;;;5091125;28;20181;-59
2021/08/28 09:44:18;;;;;;;3.22;2.13;;;21.40;65.20;;;;;;5089778;28;20195;-58
2021/08/28 09:46:43;;;;;;;2.25;1.80;;;21.30;65.10;;;;;;5089378;28;20211;-58
2021/08/28 09:49:09;;;;;;;4.05;2.00;;;21.40;65.10;;;;;;5090519;28;20223;-58
2021/08/28 09:51:38;;;;;;;3.40;2.30;;;21.40;65.20;;;;;;5089307;28;20174;-58
2021/08/28 09:54:03;;;;;;;4.32;2.00;;;21.40;65.10;;;;;;5088005;28;20244;-59
2021/08/28 09:56:29;;;;;;;3.22;2.05;;;21.40;65.00;;;;;;5089937;28;20257;-59
2021/08/28 09:58:54;;;;;;;5.35;2.08;;;21.40;64.90;;;;;;5091030;28;20161;-59
2021/08/28 10:01:21;;;;;;;2.15;1.80;;;21.60;64.80;;;;;;5088590;28;20205;-59
2021/08/28 10:03:57;;;;;;;3.08;1.75;;;21.50;64.60;;;;;;5090789;28;20253;-57
2021/08/28 10:06:23;;;;;;;3.40;1.90;;;21.60;64.60;;;;;;5088085;28;20620;-59
2021/08/28 10:08:48;;;;;;;3.42;2.40;;;21.60;64.60;;;;;;5090311;28;20271;-58
2021/08/28 10:11:14;;;;;;;2.78;2.03;;;21.60;64.60;;;;;;5089408;28;20191;-58
2021/08/28 10:13:39;;;;;;;3.03;1.90;;;21.60;64.70;;;;;;5088793;28;20186;-58
2021/08/28 10:16:05;;;;;;;3.88;2.10;;;21.60;64.80;;;;;;5088923;28;20170;-59
2021/08/28 10:18:30;;;;;;;2.80;1.92;;;21.60;64.80;;;;;;5091591;28;20227;-59
2021/08/28 10:20:57;;;;;;;2.88;2.00;;;21.60;64.80;;;;;;5091766;28;20225;-59
2021/08/28 10:23:24;;;;;;;3.15;2.25;;;21.60;64.80;;;;;;5095313;28;20276;-59
2021/08/28 10:25:50;;;;;;;5.45;2.20;;;21.60;64.70;;;;;;5107122;28;20169;-58
2021/08/28 10:28:16;;;;;;;2.80;2.20;;;21.70;64.60;;;;;;5094014;28;20531;-59
2021/08/28 10:30:41;;;;;;;2.95;1.85;;;21.60;64.50;;;;;;5090055;28;20181;-58
2021/08/28 10:33:07;;;;;;;3.95;2.03;;;21.70;64.50;;;;;;5092803;28;20172;-58
2021/08/28 10:35:33;;;;;;;3.22;2.08;;;21.60;64.50;;;;;;5090070;28;20180;-60
2021/08/28 10:37:59;;;;;;;2.53;2.10;;;21.70;64.50;;;;;;5109696;28;20666;-59
2021/08/28 10:40:27;;;;;;;2.88;2.50;;;21.70;64.40;;;;;;5090023;28;20201;-59
2021/08/28 10:42:53;;;;;;;3.50;2.35;;;21.70;64.40;;;;;;5090411;28;20185;-59
2021/08/28 10:45:33;;;;;;;3.05;2.08;;;21.70;64.40;;;;;;5099856;28;20183;-59
2021/08/28 10:48:03;;;;;;;3.53;2.20;;;21.70;64.40;;;;;;5098553;28;20178;-59
2021/08/28 10:50:33;;;;;;;2.30;2.10;;;21.70;64.30;;;;;;5091113;28;20197;-59
2021/08/28 10:52:59;;;;;;;1.88;1.75;;;21.80;64.30;;;;;;5091029;28;20746;-59
2021/08/28 10:55:36;;;;;;;2.45;2.00;;;21.80;64.10;;;;;;5091272;28;20597;-59
2021/08/28 10:58:17;;;;;;;3.75;1.95;;;21.80;64.20;;;;;;5090808;28;20173;-60
2021/08/28 11:00:49;;;;;;;2.60;2.00;;;21.80;64.30;;;;;;5091187;28;20218;-60
2021/08/28 11:03:47;;;;;;;2.67;1.90;;;21.80;64.30;;;;;;5108516;28;20176;-59
2021/08/28 11:06:16;;;;;;;4.20;2.72;;;21.80;64.30;;;;;;5053394;28;20182;-62
2021/08/28 11:08:44;;;;;;;4.50;2.00;;;21.70;64.20;;;;;;5074665;28;20220;-62
2021/08/28 11:11:41;;;;;;;4.32;2.33;;;21.70;64.40;;;;;;5074787;28;20174;-61
2021/08/28 11:14:07;;;;;;;4.00;2.17;;;21.80;64.40;;;;;;5075082;28;20253;-61
2021/08/28 11:16:44;;;;;;;4.18;2.25;;;21.80;64.30;;;;;;5074234;28;20621;-61
2021/08/28 11:19:30;;;;;;;3.90;2.33;;;21.80;64.30;;;;;;5073534;28;20253;-61
2021/08/28 11:21:55;;;;;;;3.67;2.10;;;21.80;64.30;;;;;;5074897;28;20274;-60
2021/08/28 11:24:22;;;;;;;3.30;2.05;;;21.80;64.20;;;;;;5073923;28;20261;-61
2021/08/28 11:26:56;;;;;;;3.00;2.15;;;21.80;64.20;;;;;;5074064;28;20235;-63
2021/08/28 11:29:25;;;;;;;3.10;1.98;;;21.90;64.30;;;;;;5074598;28;20240;-62
2021/08/28 11:32:23;;;;;;;4.10;2.20;;;21.90;64.40;;;;;;5074653;28;20193;-62
2021/08/28 11:34:53;;;;;;;6.00;2.70;;;21.90;64.40;;;;;;5072546;28;20650;-64
2021/08/28 11:37:37;;;;;;;5.75;2.55;;;21.90;64.10;;;;;;5107809;28;20184;-64
2021/08/28 11:40:20;;;;;;;4.15;2.55;;;22.00;64.20;;;;;;5073826;28;20279;-63
2021/08/28 11:42:46;;;;;;;5.05;2.63;;;22.00;64.10;;;;;;5074201;28;20641;-63
2021/08/28 11:45:11;;;;;;;3.75;2.60;;;21.90;64.10;;;;;;5074054;28;20202;-63
2021/08/28 11:47:38;;;;;;;4.93;2.72;;;21.90;64.10;;;;;;5073247;28;20174;-63
2021/08/28 11:50:06;;;;;;;6.47;2.60;;;21.90;64.20;;;;;;5074284;28;20231;-63
2021/08/28 11:52:35;;;;;;;4.63;2.40;;;21.80;64.30;;;;;;5074164;28;20189;-63
2021/08/28 11:55:08;;;;;;;5.43;2.60;;;21.80;64.40;;;;;;5073245;28;20645;-63
2021/08/28 11:57:35;;;;;;;4.43;2.53;;;21.80;64.20;;;;;;5073610;28;20530;-62
2021/08/28 12:00:01;;;;;;;4.05;2.33;;;21.90;63.90;;;;;;5074257;28;20565;-63
2021/08/28 12:02:27;;;;;;;5.43;2.65;;;22.00;63.70;;;;;;5073529;28;20239;-63
2021/08/28 12:04:52;;;;;;;4.13;2.58;;;22.00;63.80;;;;;;5074058;28;20174;-62
2021/08/28 12:07:18;;;;;;;4.75;2.22;;;22.00;63.80;;;;;;5074176;28;20178;-63
2021/08/28 12:09:43;;;;;;;5.03;2.72;;;21.90;63.80;;;;;;5088871;28;20535;-62
2021/08/28 12:12:09;;;;;;;4.82;2.58;;;22.00;63.90;;;;;;5089538;28;20182;-62
2021/08/28 12:14:34;;;;;;;2.60;2.40;;;21.90;63.90;;;;;;5089599;28;20174;-62
2021/08/28 12:17:00;;;;;;;4.25;2.50;;;21.90;64.10;;;;;;5073435;28;20179;-62
2021/08/28 12:19:30;;;;;;;3.78;2.42;;;21.90;64.20;;;;;;5073631;28;20226;-63
2021/08/28 12:22:04;;;;;;;4.05;2.30;;;21.90;64.10;;;;;;5073669;28;20174;-62
2021/08/28 12:24:33;;;;;;;2.67;1.95;;;21.90;64.10;;;;;;5073630;28;20641;-61
2021/08/28 12:27:09;;;;;;;3.60;2.85;;;21.90;64.90;;;;;;5073768;28;20398;-61
2021/08/28 12:29:48;;;;;;;3.10;2.67;;;21.90;64.00;;;;;;5073058;28;20178;-61
2021/08/28 12:32:24;;;;;;;4.18;2.58;;;21.90;63.90;;;;;;5073735;28;20174;-62
2021/08/28 12:34:54;;;;;;;5.20;2.88;;;21.90;63.90;;;;;;5073170;28;20536;-63
2021/08/28 12:37:21;;;;;;;4.55;2.55;;;21.90;63.90;;;;;;5106581;28;20301;-63
2021/08/28 12:39:48;;;;;;;3.72;2.42;;;21.90;63.90;;;;;;5095575;28;20288;-63
2021/08/28 12:42:18;;;;;;;5.32;2.60;;;21.90;63.90;;;;;;5091712;28;20537;-62
2021/08/28 12:44:47;;;;;;;4.85;2.78;;;22.00;63.80;;;;;;5092627;28;20174;-62
2021/08/28 12:47:13;;;;;;;2.90;2.60;;;22.10;63.50;;;;;;5093443;28;20327;-63
2021/08/28 12:49:39;;;;;;;3.13;2.33;;;22.00;63.50;;;;;;5093107;28;20265;-62